Time;durP1;ratioP1;P1;durP2;ratioP2;P2;SDS_P1;SDS_P2;PMS_P1;PMS_P2;Temp;Humidity;BMP_temperature;BMP_pressure;BME280_temperature;BME280_humidity;BME280_pressure;Samples;Min_cycle;Max_cycle;Signal;HPM_P1;HPM_P2
2022/10/19 00:00:15;;;;;;;15.57;7.28;;;;;;;;;;1036096;28;20072;-77
2022/10/19 00:00:46;;;;;;;21.08;8.07;;;;;;;;;;1031649;28;20058;-77
2022/10/19 00:01:17;;;;;;;16.95;8.82;;;;;;;;;;1032075;28;20422;-76
2022/10/19 00:01:47;;;;;;;14.07;6.97;;;;;;;;;;1036027;28;20120;-76
2022/10/19 00:02:18;;;;;;;18.25;8.63;;;;;;;;;;1035989;28;20077;-76
2022/10/19 00:02:48;;;;;;;27.30;8.27;;;;;;;;;;1031774;28;20022;-76
2022/10/19 00:03:19;;;;;;;37.63;12.00;;;;;;;;;;1032028;28;20037;-76
2022/10/19 00:03:52;;;;;;;19.20;9.15;;;;;;;;;;1032076;28;20057;-76
2022/10/19 00:04:23;;;;;;;20.88;7.38;;;;;;;;;;1036047;28;20030;-76
2022/10/19 00:04:53;;;;;;;29.42;11.60;;;;;;;;;;1036306;28;20116;-77
2022/10/19 00:05:24;;;;;;;33.58;9.85;;;;;;;;;;1036356;28;20529;-77
2022/10/19 00:05:55;;;;;;;22.45;9.43;;;;;;;;;;1036252;28;20102;-77
2022/10/19 00:06:27;;;;;;;48.55;14.13;;;;;;;;;;1036320;28;20688;-77
2022/10/19 00:06:57;;;;;;;32.35;13.40;;;;;;;;;;1036393;28;20474;-77
2022/10/19 00:07:28;;;;;;;31.15;11.85;;;;;;;;;;1036170;28;20029;-77
2022/10/19 00:08:00;;;;;;;31.50;12.20;;;;;;;;;;1036474;28;20057;-77
2022/10/19 00:08:31;;;;;;;33.35;12.95;;;;;;;;;;1036206;28;20026;-77
2022/10/19 00:09:09;;;;;;;40.70;14.15;;;;;;;;;;1035944;28;20054;-77
2022/10/19 00:09:41;;;;;;;45.00;14.70;;;;;;;;;;1036009;28;20030;-76
2022/10/19 00:10:12;;;;;;;39.83;15.07;;;;;;;;;;1035873;28;20029;-77
2022/10/19 00:10:43;;;;;;;46.78;17.17;;;;;;;;;;1035905;28;20033;-77
2022/10/19 00:11:13;;;;;;;47.03;17.52;;;;;;;;;;1035819;28;20393;-76
2022/10/19 00:11:45;;;;;;;55.22;16.65;;;;;;;;;;1035866;28;20076;-76
2022/10/19 00:12:16;;;;;;;48.25;15.30;;;;;;;;;;1035900;28;20034;-76
2022/10/19 00:12:46;;;;;;;52.95;16.30;;;;;;;;;;1035859;28;20473;-76
2022/10/19 00:13:17;;;;;;;40.08;16.42;;;;;;;;;;1035841;28;20025;-76
2022/10/19 00:13:47;;;;;;;47.58;14.63;;;;;;;;;;1036002;28;20037;-76
2022/10/19 00:14:20;;;;;;;47.78;13.82;;;;;;;;;;1035920;28;20053;-78
2022/10/19 00:14:51;;;;;;;29.17;13.32;;;;;;;;;;1035842;28;20030;-78
2022/10/19 00:15:21;;;;;;;30.05;12.02;;;;;;;;;;1036024;28;20034;-79
2022/10/19 00:15:52;;;;;;;31.98;12.65;;;;;;;;;;1035801;28;20444;-77
2022/10/19 00:16:23;;;;;;;38.22;12.43;;;;;;;;;;1035906;28;20382;-77
2022/10/19 00:16:55;;;;;;;32.35;10.40;;;;;;;;;;1035797;28;20041;-77
2022/10/19 00:17:25;;;;;;;30.60;11.80;;;;;;;;;;1035893;28;20029;-77
2022/10/19 00:17:56;;;;;;;30.42;11.65;;;;;;;;;;1036311;28;20113;-77
2022/10/19 00:18:26;;;;;;;21.52;9.88;;;;;;;;;;1036139;28;20029;-76
2022/10/19 00:18:58;;;;;;;20.35;9.02;;;;;;;;;;1036397;28;20072;-76
2022/10/19 00:19:28;;;;;;;26.20;10.48;;;;;;;;;;1036145;28;20087;-77
2022/10/19 00:19:59;;;;;;;22.85;9.60;;;;;;;;;;1035974;28;20056;-77
2022/10/19 00:20:29;;;;;;;25.25;9.20;;;;;;;;;;1035734;28;20099;-77
2022/10/19 00:21:04;;;;;;;22.50;9.55;;;;;;;;;;1036002;28;20540;-77
2022/10/19 00:21:34;;;;;;;31.98;10.15;;;;;;;;;;1035669;28;20111;-77
2022/10/19 00:22:05;;;;;;;24.02;9.18;;;;;;;;;;1035973;28;20536;-77
2022/10/19 00:22:36;;;;;;;35.17;10.35;;;;;;;;;;1035787;28;20549;-77
2022/10/19 00:23:06;;;;;;;26.42;10.15;;;;;;;;;;1036037;28;20446;-77
2022/10/19 00:23:37;;;;;;;28.13;9.27;;;;;;;;;;1036175;28;20475;-77
2022/10/19 00:24:07;;;;;;;33.00;10.40;;;;;;;;;;1036296;28;20470;-77
2022/10/19 00:24:38;;;;;;;32.78;10.68;;;;;;;;;;1036133;28;20424;-77
2022/10/19 00:25:08;;;;;;;24.17;10.65;;;;;;;;;;1036136;28;20065;-77
2022/10/19 00:25:39;;;;;;;24.58;9.63;;;;;;;;;;1035801;28;20033;-77
2022/10/19 00:26:10;;;;;;;34.50;9.73;;;;;;;;;;1035768;28;20033;-77
2022/10/19 00:26:40;;;;;;;25.42;8.57;;;;;;;;;;1035799;28;20026;-77
2022/10/19 00:27:11;;;;;;;33.13;9.75;;;;;;;;;;1035865;28;20018;-77
2022/10/19 00:27:41;;;;;;;31.45;11.88;;;;;;;;;;1035956;28;20509;-77
2022/10/19 00:28:12;;;;;;;22.83;10.23;;;;;;;;;;1035985;28;20026;-76
2022/10/19 00:28:43;;;;;;;25.95;10.27;;;;;;;;;;1035755;28;20030;-77
2022/10/19 00:29:14;;;;;;;30.00;10.50;;;;;;;;;;1036132;28;20030;-76
2022/10/19 00:29:44;;;;;;;28.50;10.60;;;;;;;;;;1036173;28;20146;-76
2022/10/19 00:30:15;;;;;;;26.67;10.13;;;;;;;;;;1036080;28;20474;-76
2022/10/19 00:30:46;;;;;;;22.42;10.35;;;;;;;;;;1035963;28;20060;-77
2022/10/19 00:31:17;;;;;;;23.50;9.27;;;;;;;;;;1036278;28;20074;-76
2022/10/19 00:31:50;;;;;;;28.58;11.43;;;;;;;;;;1036180;28;20030;-76
2022/10/19 00:32:21;;;;;;;23.77;9.52;;;;;;;;;;1036248;28;20026;-76
2022/10/19 00:32:51;;;;;;;20.48;9.88;;;;;;;;;;1036233;28;20030;-77
2022/10/19 00:33:22;;;;;;;33.33;11.48;;;;;;;;;;1035715;28;20124;-77
2022/10/19 00:33:54;;;;;;;22.08;8.90;;;;;;;;;;1031645;28;20592;-77
2022/10/19 00:34:25;;;;;;;31.25;9.85;;;;;;;;;;1031830;28;20494;-77
2022/10/19 00:34:55;;;;;;;20.00;9.07;;;;;;;;;;1032049;28;20162;-77
2022/10/19 00:35:26;;;;;;;18.88;7.53;;;;;;;;;;1031925;28;20018;-76
2022/10/19 00:35:56;;;;;;;30.67;9.35;;;;;;;;;;1035921;28;20025;-76
2022/10/19 00:36:32;;;;;;;27.02;10.43;;;;;;;;;;1035697;28;20576;-76
2022/10/19 00:37:02;;;;;;;25.65;9.85;;;;;;;;;;1035953;28;20030;-76
2022/10/19 00:37:33;;;;;;;26.60;9.27;;;;;;;;;;1036005;28;20022;-76
2022/10/19 00:38:03;;;;;;;16.17;8.02;;;;;;;;;;1036347;28;20018;-76
2022/10/19 00:38:34;;;;;;;15.95;7.60;;;;;;;;;;1035977;28;20022;-77
2022/10/19 00:39:05;;;;;;;17.88;7.97;;;;;;;;;;1036333;28;20030;-77
2022/10/19 00:39:35;;;;;;;24.30;9.93;;;;;;;;;;1035728;28;20473;-77
2022/10/19 00:40:06;;;;;;;31.02;10.65;;;;;;;;;;1035771;28;20038;-76
2022/10/19 00:40:37;;;;;;;14.65;7.50;;;;;;;;;;1031505;28;20026;-76
2022/10/19 00:41:08;;;;;;;18.08;7.60;;;;;;;;;;1031585;28;20474;-76
2022/10/19 00:41:39;;;;;;;31.33;11.70;;;;;;;;;;1031715;28;20022;-76
2022/10/19 00:42:11;;;;;;;20.67;7.97;;;;;;;;;;1035982;28;20030;-76
2022/10/19 00:42:41;;;;;;;24.60;9.20;;;;;;;;;;1035632;28;20021;-76
2022/10/19 00:43:16;;;;;;;17.92;7.75;;;;;;;;;;1035799;28;20029;-76
2022/10/19 00:43:50;;;;;;;15.80;8.23;;;;;;;;;;1035883;28;20040;-77
2022/10/19 00:44:30;;;;;;;20.17;7.18;;;;;;;;;;1034890;28;20030;-76
2022/10/19 00:45:03;;;;;;;16.80;7.85;;;;;;;;;;1035629;28;20032;-76
2022/10/19 00:45:33;;;;;;;16.13;8.52;;;;;;;;;;1035347;28;20065;-76
2022/10/19 00:46:03;;;;;;;19.65;7.80;;;;;;;;;;1039765;28;22399;-76
2022/10/19 00:46:35;;;;;;;19.35;8.15;;;;;;;;;;1039916;28;20029;-77
2022/10/19 00:47:06;;;;;;;20.58;8.32;;;;;;;;;;1040056;28;20028;-77
2022/10/19 00:47:37;;;;;;;20.00;8.35;;;;;;;;;;1039953;28;20671;-77
2022/10/19 00:48:09;;;;;;;20.20;8.48;;;;;;;;;;1040103;28;20025;-76
2022/10/19 00:48:40;;;;;;;20.48;9.23;;;;;;;;;;1039974;28;20034;-76
2022/10/19 00:49:16;;;;;;;13.63;7.32;;;;;;;;;;1040136;28;20022;-76
2022/10/19 00:49:47;;;;;;;20.80;7.57;;;;;;;;;;1039036;28;20095;-77
2022/10/19 00:50:17;;;;;;;17.58;7.05;;;;;;;;;;1039124;28;20080;-77
2022/10/19 00:50:50;;;;;;;27.00;8.77;;;;;;;;;;1035106;28;20052;-77
2022/10/19 00:51:21;;;;;;;15.25;8.02;;;;;;;;;;1035806;28;20037;-77
2022/10/19 00:52:01;;;;;;;24.98;10.00;;;;;;;;;;1036219;28;20029;-77
2022/10/19 00:52:32;;;;;;;18.52;8.23;;;;;;;;;;1039559;28;20018;-76
2022/10/19 00:53:02;;;;;;;21.27;9.00;;;;;;;;;;1039776;28;20116;-76
2022/10/19 00:53:34;;;;;;;15.25;7.63;;;;;;;;;;1033785;28;20029;-76
2022/10/19 00:54:06;;;;;;;24.77;9.00;;;;;;;;;;1027733;28;20063;-76
2022/10/19 00:54:39;;;;;;;22.38;9.73;;;;;;;;;;1028449;28;20411;-76
2022/10/19 00:55:10;;;;;;;22.27;9.20;;;;;;;;;;1027592;28;20399;-76
2022/10/19 00:55:41;;;;;;;24.00;10.35;;;;;;;;;;1027413;28;20026;-76
2022/10/19 00:56:13;;;;;;;18.30;7.82;;;;;;;;;;1028033;28;20113;-76
2022/10/19 00:56:44;;;;;;;21.08;8.10;;;;;;;;;;1031571;28;20127;-76
2022/10/19 00:57:15;;;;;;;19.67;7.45;;;;;;;;;;1031873;28;20121;-76
2022/10/19 00:57:46;;;;;;;19.77;8.82;;;;;;;;;;1035610;28;20471;-76
2022/10/19 00:58:16;;;;;;;16.27;8.32;;;;;;;;;;1035877;28;20034;-76
2022/10/19 00:58:47;;;;;;;18.30;8.50;;;;;;;;;;1035559;28;20022;-76
2022/10/19 00:59:18;;;;;;;23.88;8.73;;;;;;;;;;1035591;28;20539;-76
2022/10/19 00:59:50;;;;;;;18.95;8.85;;;;;;;;;;1031631;28;20026;-76
2022/10/19 01:00:21;;;;;;;26.55;8.93;;;;;;;;;;1027547;28;20050;-76
2022/10/19 01:00:51;;;;;;;19.23;8.77;;;;;;;;;;1027899;28;20463;-76
2022/10/19 01:01:23;;;;;;;23.85;9.05;;;;;;;;;;1031798;28;20120;-76
2022/10/19 01:01:54;;;;;;;19.05;8.68;;;;;;;;;;1031685;28;20030;-76
2022/10/19 01:02:24;;;;;;;23.70;8.90;;;;;;;;;;1035728;28;20569;-76
2022/10/19 01:02:56;;;;;;;20.52;8.80;;;;;;;;;;1035676;28;20124;-76
2022/10/19 01:03:26;;;;;;;24.30;9.80;;;;;;;;;;1035483;28;20036;-77
2022/10/19 01:03:57;;;;;;;20.60;9.05;;;;;;;;;;1035708;28;20055;-77
2022/10/19 01:04:29;;;;;;;24.85;10.57;;;;;;;;;;1035531;28;20536;-77
2022/10/19 01:05:00;;;;;;;21.00;9.30;;;;;;;;;;1035764;28;20099;-77
2022/10/19 01:05:31;;;;;;;22.95;9.70;;;;;;;;;;1036546;28;20124;-78
2022/10/19 01:06:02;;;;;;;21.98;8.75;;;;;;;;;;1035932;28;20030;-78
2022/10/19 01:06:33;;;;;;;26.40;9.68;;;;;;;;;;1035419;28;20079;-78
2022/10/19 01:07:04;;;;;;;16.92;8.05;;;;;;;;;;1035836;28;20632;-77
2022/10/19 01:07:34;;;;;;;16.42;7.55;;;;;;;;;;1035804;28;20573;-78
2022/10/19 01:08:07;;;;;;;21.48;8.93;;;;;;;;;;1035783;28;20036;-78
2022/10/19 01:08:38;;;;;;;20.17;10.05;;;;;;;;;;1035516;28;20066;-79
2022/10/19 01:09:08;;;;;;;26.63;9.65;;;;;;;;;;1031609;28;20030;-79
2022/10/19 01:09:39;;;;;;;20.23;9.13;;;;;;;;;;1031957;28;20037;-79
2022/10/19 01:10:10;;;;;;;14.32;7.53;;;;;;;;;;1035811;28;20402;-78
2022/10/19 01:10:51;;;;;;;17.67;8.07;;;;;;;;;;1035743;28;20034;-78
2022/10/19 01:11:40;;;;;;;19.92;9.07;;;;;;;;;;1038336;28;20025;-78
2022/10/19 01:12:21;;;;;;;20.92;8.70;;;;;;;;;;1038617;28;20022;-77
2022/10/19 01:13:21;;;;;;;18.73;7.32;;;;;;;;;;1035668;28;20064;-77
2022/10/19 01:13:57;;;;;;;19.70;9.63;;;;;;;;;;1019389;29;20066;-76
2022/10/19 01:14:34;;;;;;;22.98;7.57;;;;;;;;;;1031400;28;20519;-77
2022/10/19 01:15:24;;;;;;;15.73;6.63;;;;;;;;;;1031974;28;20076;-77
2022/10/19 01:16:02;;;;;;;20.70;8.32;;;;;;;;;;1033464;28;20065;-76
2022/10/19 01:16:45;;;;;;;18.17;7.70;;;;;;;;;;1035629;28;20045;-76
2022/10/19 01:17:45;;;;;;;19.33;8.35;;;;;;;;;;1035535;28;20076;-77
2022/10/19 01:18:15;;;;;;;22.25;7.38;;;;;;;;;;1027458;28;20037;-78
2022/10/19 01:18:46;;;;;;;13.00;7.15;;;;;;;;;;1035299;28;20080;-77
2022/10/19 01:19:16;;;;;;;21.45;8.95;;;;;;;;;;1036083;28;20057;-77
2022/10/19 01:20:05;;;;;;;24.58;8.63;;;;;;;;;;1035473;28;20032;-77
2022/10/19 01:20:54;;;;;;;20.15;10.57;;;;;;;;;;1035592;28;20148;-77
2022/10/19 01:21:27;;;;;;;16.00;8.40;;;;;;;;;;1032610;28;20053;-77
2022/10/19 01:22:01;;;;;;;19.60;8.88;;;;;;;;;;1035894;28;20609;-78
2022/10/19 01:22:50;;;;;;;18.90;9.23;;;;;;;;;;1034969;28;20402;-78
2022/10/19 01:23:41;;;;;;;20.05;8.95;;;;;;;;;;1032940;28;20129;-78
2022/10/19 01:24:44;;;;;;;18.52;8.85;;;;;;;;;;1031999;28;20034;-78
2022/10/19 01:25:26;;;;;;;13.90;7.60;;;;;;;;;;1027266;28;20022;-78
2022/10/19 01:26:00;;;;;;;23.08;10.52;;;;;;;;;;1027342;28;20026;-78
2022/10/19 01:26:31;;;;;;;30.25;11.70;;;;;;;;;;1032643;28;20034;-78
2022/10/19 01:27:12;;;;;;;56.97;23.05;;;;;;;;;;1037668;28;20444;-78
2022/10/19 01:27:52;;;;;;;70.90;29.38;;;;;;;;;;1036664;28;20022;-77
2022/10/19 01:28:28;;;;;;;67.32;29.02;;;;;;;;;;1037655;28;20053;-76
2022/10/19 01:29:13;;;;;;;63.58;27.20;;;;;;;;;;1034224;28;20021;-77
2022/10/19 01:30:01;;;;;;;61.92;27.17;;;;;;;;;;1037674;28;20037;-78
2022/10/19 01:30:56;;;;;;;52.88;23.65;;;;;;;;;;1037277;28;20021;-77
2022/10/19 01:31:41;;;;;;;51.58;22.77;;;;;;;;;;1036669;28;20108;-77
2022/10/19 01:32:15;;;;;;;40.30;18.13;;;;;;;;;;1037553;28;20018;-77
2022/10/19 01:32:56;;;;;;;34.92;14.98;;;;;;;;;;1033081;28;20088;-77
2022/10/19 01:33:31;;;;;;;34.72;14.77;;;;;;;;;;1033361;28;20083;-77
2022/10/19 01:34:18;;;;;;;30.35;13.35;;;;;;;;;;1032937;28;20981;-78
2022/10/19 01:34:54;;;;;;;32.10;14.70;;;;;;;;;;1032251;28;20061;-77
2022/10/19 01:35:39;;;;;;;28.58;12.85;;;;;;;;;;1032669;28;20029;-80
2022/10/19 01:36:20;;;;;;;24.67;13.40;;;;;;;;;;1042457;22;20012;-75
2022/10/19 01:36:50;;;;;;;;;;;;;;;;;;1040695;28;20076;-75
2022/10/19 01:37:34;;;;;;;30.13;14.15;;;;;;;;;;1041412;28;19913;-75
2022/10/19 01:38:05;;;;;;;26.30;12.45;;;;;;;;;;1042325;28;20064;-75
2022/10/19 01:38:35;;;;;;;28.35;11.80;;;;;;;;;;1042028;28;20039;-74
2022/10/19 01:39:18;;;;;;;29.38;12.02;;;;;;;;;;1041124;28;20029;-75
2022/10/19 01:39:48;;;;;;;18.95;9.45;;;;;;;;;;1041043;28;20671;-75
2022/10/19 01:40:25;;;;;;;26.05;11.07;;;;;;;;;;1042693;28;20031;-76
2022/10/19 01:41:00;;;;;;;21.08;10.38;;;;;;;;;;1038977;28;20063;-75
2022/10/19 01:41:35;;;;;;;19.55;10.60;;;;;;;;;;1038748;28;20021;-76
2022/10/19 01:42:10;;;;;;;24.45;8.48;;;;;;;;;;1041618;28;20067;-75
2022/10/19 01:42:45;;;;;;;19.38;9.70;;;;;;;;;;1043087;28;20075;-75
2022/10/19 01:43:23;;;;;;;19.55;9.25;;;;;;;;;;1035913;28;20022;-75
2022/10/19 01:44:14;;;;;;;24.88;10.70;;;;;;;;;;1037233;28;20026;-75
2022/10/19 01:44:45;;;;;;;14.32;7.57;;;;;;;;;;1039116;28;20120;-75
2022/10/19 01:45:23;;;;;;;24.48;11.00;;;;;;;;;;1039249;28;20036;-75
2022/10/19 01:46:05;;;;;;;16.55;9.15;;;;;;;;;;1043398;28;20408;-76
2022/10/19 01:46:38;;;;;;;21.25;9.68;;;;;;;;;;1040776;28;20532;-76
2022/10/19 01:47:10;;;;;;;27.10;10.75;;;;;;;;;;1041247;28;20087;-76
2022/10/19 01:47:47;;;;;;;21.17;10.43;;;;;;;;;;1042660;28;20024;-76
2022/10/19 01:48:22;;;;;;;26.63;12.45;;;;;;;;;;1042731;28;20565;-76
2022/10/19 01:49:02;;;;;;;30.20;13.63;;;;;;;;;;1039029;28;20040;-76
2022/10/19 01:49:32;;;;;;;;;;;;;;;;;;1038759;28;20032;-76
2022/10/19 01:50:13;;;;;;;25.38;10.75;;;;;;;;;;1038091;28;19976;-76
2022/10/19 01:50:51;;;;;;;21.98;10.48;;;;;;;;;;1038571;28;20518;-76
2022/10/19 01:51:27;;;;;;;26.58;12.13;;;;;;;;;;1039271;28;20485;-76
2022/10/19 01:52:00;;;;;;;25.38;11.82;;;;;;;;;;1040463;28;20077;-76
2022/10/19 01:52:32;;;;;;;32.30;13.80;;;;;;;;;;1041406;28;20133;-76
2022/10/19 01:53:04;;;;;;;32.88;12.07;;;;;;;;;;1042043;28;20040;-76
2022/10/19 01:53:39;;;;;;;28.00;13.00;;;;;;;;;;1038894;28;20025;-76
2022/10/19 01:54:11;;;;;;;27.85;13.95;;;;;;;;;;1039814;28;20492;-76
2022/10/19 01:54:43;;;;;;;32.97;12.65;;;;;;;;;;1037853;28;20121;-76
2022/10/19 01:55:15;;;;;;;25.95;11.75;;;;;;;;;;1035750;28;20023;-76
2022/10/19 01:55:48;;;;;;;27.83;12.82;;;;;;;;;;1037016;28;20151;-76
2022/10/19 01:56:20;;;;;;;32.00;12.00;;;;;;;;;;1037383;28;20034;-76
2022/10/19 01:56:53;;;;;;;34.15;13.93;;;;;;;;;;1034509;28;20065;-76
2022/10/19 01:57:26;;;;;;;28.20;12.18;;;;;;;;;;1038427;28;20033;-76
2022/10/19 01:58:03;;;;;;;30.77;13.55;;;;;;;;;;1039642;28;20112;-76
2022/10/19 01:58:35;;;;;;;29.15;13.63;;;;;;;;;;1041370;28;20080;-76
2022/10/19 01:59:08;;;;;;;31.52;14.02;;;;;;;;;;1041728;28;20121;-76
2022/10/19 01:59:39;;;;;;;32.05;12.30;;;;;;;;;;1041609;28;20020;-76
2022/10/19 02:00:11;;;;;;;26.88;12.60;;;;;;;;;;1042226;28;20492;-76
2022/10/19 02:00:44;;;;;;;27.33;12.82;;;;;;;;;;1043399;28;20538;-75
2022/10/19 02:01:18;;;;;;;28.80;12.60;;;;;;;;;;1040778;28;20817;-76
2022/10/19 02:01:50;;;;;;;22.67;11.13;;;;;;;;;;1041344;28;20025;-76
2022/10/19 02:02:21;;;;;;;27.35;11.60;;;;;;;;;;1041792;28;20049;-76
2022/10/19 02:02:53;;;;;;;20.85;10.55;;;;;;;;;;1041303;28;20082;-76
2022/10/19 02:03:24;;;;;;;27.52;13.52;;;;;;;;;;1039480;28;20063;-76
2022/10/19 02:03:56;;;;;;;28.98;10.75;;;;;;;;;;1042855;28;20032;-76
2022/10/19 02:04:27;;;;;;;33.10;13.02;;;;;;;;;;1040787;28;20110;-76
2022/10/19 02:04:58;;;;;;;28.65;12.68;;;;;;;;;;1039879;28;20033;-76
2022/10/19 02:05:30;;;;;;;26.63;12.88;;;;;;;;;;1035825;28;20037;-76
2022/10/19 02:06:03;;;;;;;30.02;13.27;;;;;;;;;;1038889;28;20026;-76
2022/10/19 02:06:34;;;;;;;23.92;12.85;;;;;;;;;;1039345;28;20025;-76
2022/10/19 02:07:06;;;;;;;23.08;11.85;;;;;;;;;;1041022;28;20653;-77
2022/10/19 02:07:39;;;;;;;24.85;11.07;;;;;;;;;;1042871;28;20147;-76
2022/10/19 02:08:21;;;;;;;25.02;12.52;;;;;;;;;;1042764;28;20025;-78
2022/10/19 02:08:53;;;;;;;27.13;11.25;;;;;;;;;;1040720;28;20036;-77
2022/10/19 02:09:23;;;;;;;31.92;13.23;;;;;;;;;;1041274;28;20420;-77
2022/10/19 02:09:54;;;;;;;29.73;12.40;;;;;;;;;;1038280;28;20090;-76
2022/10/19 02:10:26;;;;;;;29.10;13.65;;;;;;;;;;1040822;28;20025;-77
2022/10/19 02:10:57;;;;;;;22.52;11.90;;;;;;;;;;1040649;28;20024;-77
2022/10/19 02:11:29;;;;;;;29.63;13.02;;;;;;;;;;1042896;28;20520;-76
2022/10/19 02:12:02;;;;;;;32.03;12.38;;;;;;;;;;1043638;28;20032;-76
2022/10/19 02:12:33;;;;;;;25.65;13.40;;;;;;;;;;1037393;28;20389;-76
2022/10/19 02:13:03;;;;;;;30.92;14.00;;;;;;;;;;1038688;28;20080;-76
2022/10/19 02:13:35;;;;;;;35.08;16.27;;;;;;;;;;1034876;28;20112;-77
2022/10/19 02:14:10;;;;;;;36.80;13.40;;;;;;;;;;1036418;28;20509;-77
2022/10/19 02:14:45;;;;;;;34.13;14.35;;;;;;;;;;1039658;28;20120;-77
2022/10/19 02:15:17;;;;;;;32.78;13.70;;;;;;;;;;1037896;28;20041;-75
2022/10/19 02:15:50;;;;;;;25.40;13.75;;;;;;;;;;1039543;28;20079;-76
2022/10/19 02:16:25;;;;;;;34.33;15.52;;;;;;;;;;1041657;28;20032;-76
2022/10/19 02:17:00;;;;;;;28.50;14.02;;;;;;;;;;1040275;28;20393;-76
2022/10/19 02:17:34;;;;;;;38.25;15.02;;;;;;;;;;1037688;28;20480;-76
2022/10/19 02:18:06;;;;;;;26.63;12.77;;;;;;;;;;1038214;28;20059;-76
2022/10/19 02:18:38;;;;;;;25.85;11.23;;;;;;;;;;1036355;28;20363;-76
2022/10/19 02:19:10;;;;;;;19.30;10.20;;;;;;;;;;1040546;28;20072;-76
2022/10/19 02:19:40;;;;;;;25.65;12.13;;;;;;;;;;1040136;28;20029;-76
2022/10/19 02:20:11;;;;;;;23.63;11.82;;;;;;;;;;1038315;28;20052;-76
2022/10/19 02:20:42;;;;;;;25.00;10.40;;;;;;;;;;1040439;28;20108;-76
2022/10/19 02:21:13;;;;;;;20.20;10.45;;;;;;;;;;1039192;28;20017;-76
2022/10/19 02:21:43;;;;;;;24.50;11.40;;;;;;;;;;1040545;28;20144;-75
2022/10/19 02:22:14;;;;;;;29.27;12.38;;;;;;;;;;1040054;28;20033;-75
2022/10/19 02:22:45;;;;;;;22.02;10.50;;;;;;;;;;1039903;28;20033;-75
2022/10/19 02:23:17;;;;;;;23.60;10.68;;;;;;;;;;1042071;28;20021;-76
2022/10/19 02:23:48;;;;;;;21.77;9.75;;;;;;;;;;1043832;28;20029;-76
2022/10/19 02:24:19;;;;;;;17.33;7.78;;;;;;;;;;1040252;28;20085;-75
2022/10/19 02:24:49;;;;;;;21.88;9.60;;;;;;;;;;1036903;28;20064;-76
2022/10/19 02:25:20;;;;;;;23.50;10.93;;;;;;;;;;1037916;28;20028;-75
2022/10/19 02:25:51;;;;;;;21.63;9.73;;;;;;;;;;1040016;28;20513;-75
2022/10/19 02:26:22;;;;;;;22.88;10.15;;;;;;;;;;1042199;28;20021;-75
2022/10/19 02:26:53;;;;;;;22.35;9.95;;;;;;;;;;1043311;28;20071;-77
2022/10/19 02:27:24;;;;;;;25.80;9.80;;;;;;;;;;1041785;28;20382;-75
2022/10/19 02:27:54;;;;;;;20.38;9.27;;;;;;;;;;1043960;28;20021;-77
2022/10/19 02:28:25;;;;;;;20.27;10.77;;;;;;;;;;1041675;28;20026;-76
2022/10/19 02:28:56;;;;;;;17.92;9.40;;;;;;;;;;1043157;28;20100;-76
2022/10/19 02:29:27;;;;;;;26.30;10.35;;;;;;;;;;1043927;28;20025;-76
2022/10/19 02:29:58;;;;;;;17.88;9.73;;;;;;;;;;1041022;28;20111;-76
2022/10/19 02:30:30;;;;;;;23.30;10.60;;;;;;;;;;1041678;28;20515;-76
2022/10/19 02:31:01;;;;;;;23.73;10.95;;;;;;;;;;1040739;28;20075;-76
2022/10/19 02:31:31;;;;;;;20.73;10.43;;;;;;;;;;1041261;28;20033;-76
2022/10/19 02:32:03;;;;;;;21.42;9.88;;;;;;;;;;1042255;28;20178;-76
2022/10/19 02:32:33;;;;;;;21.05;9.65;;;;;;;;;;1043965;28;20249;-76
2022/10/19 02:33:04;;;;;;;27.45;11.98;;;;;;;;;;1043568;28;20033;-76
2022/10/19 02:33:35;;;;;;;24.85;10.38;;;;;;;;;;1042137;28;20503;-77
2022/10/19 02:34:06;;;;;;;25.45;12.00;;;;;;;;;;1039549;28;20029;-76
2022/10/19 02:34:38;;;;;;;24.50;11.43;;;;;;;;;;1037596;28;20022;-76
2022/10/19 02:35:09;;;;;;;23.25;10.15;;;;;;;;;;1038037;28;20151;-76
2022/10/19 02:35:40;;;;;;;23.85;12.00;;;;;;;;;;1037427;28;20075;-76
2022/10/19 02:36:10;;;;;;;27.70;11.70;;;;;;;;;;1040632;28;20049;-76
2022/10/19 02:36:41;;;;;;;26.73;10.93;;;;;;;;;;1037505;28;20488;-76
2022/10/19 02:37:12;;;;;;;28.67;12.63;;;;;;;;;;1039369;28;21982;-76
2022/10/19 02:37:43;;;;;;;31.13;12.90;;;;;;;;;;1042455;28;20452;-76
2022/10/19 02:38:15;;;;;;;25.05;11.98;;;;;;;;;;1041234;28;20029;-76
2022/10/19 02:38:46;;;;;;;21.00;11.93;;;;;;;;;;1042639;28;20033;-76
2022/10/19 02:39:17;;;;;;;28.40;11.30;;;;;;;;;;1043973;28;20028;-76
2022/10/19 02:39:47;;;;;;;30.65;11.23;;;;;;;;;;1041658;28;20027;-75
2022/10/19 02:40:18;;;;;;;25.50;10.60;;;;;;;;;;1039910;28;20013;-76
2022/10/19 02:41:12;;;;;;;28.27;11.80;;;;;;;;;;1038660;28;20557;-76
2022/10/19 02:42:08;;;;;;;23.02;9.98;;;;;;;;;;1042546;28;20021;-75
2022/10/19 02:42:41;;;;;;;23.15;9.50;;;;;;;;;;1039134;28;20718;-75
2022/10/19 02:43:13;;;;;;;24.58;10.60;;;;;;;;;;1041607;28;20033;-76
2022/10/19 02:43:47;;;;;;;35.53;12.02;;;;;;;;;;1041672;28;20553;-76
2022/10/19 02:44:30;;;;;;;22.55;10.18;;;;;;;;;;1037496;28;20040;-76
2022/10/19 02:45:04;;;;;;;20.75;9.13;;;;;;;;;;1034198;28;20018;-75
2022/10/19 02:45:36;;;;;;;32.15;12.50;;;;;;;;;;1034885;28;20029;-76
2022/10/19 02:46:13;;;;;;;22.08;10.27;;;;;;;;;;1038791;28;20038;-76
2022/10/19 02:46:45;;;;;;;30.60;10.93;;;;;;;;;;1042401;28;20476;-76
2022/10/19 02:47:30;;;;;;;27.77;12.63;;;;;;;;;;1040086;28;20503;-75
2022/10/19 02:48:14;;;;;;;29.23;11.48;;;;;;;;;;1038979;28;20234;-77
2022/10/19 02:48:49;;;;;;;26.52;10.93;;;;;;;;;;1035683;28;20114;-76
2022/10/19 02:49:20;;;;;;;31.92;13.65;;;;;;;;;;1034104;28;20703;-76
2022/10/19 02:49:51;;;;;;;28.33;11.40;;;;;;;;;;1030572;28;20030;-76
2022/10/19 02:50:22;;;;;;;28.17;13.45;;;;;;;;;;1033893;28;20085;-77
2022/10/19 02:50:53;;;;;;;28.80;13.05;;;;;;;;;;1030983;28;20025;-75
2022/10/19 02:51:34;;;;;;;34.00;12.85;;;;;;;;;;1038289;28;20021;-77
2022/10/19 02:52:05;;;;;;;21.30;12.35;;;;;;;;;;1041246;28;20550;-75
2022/10/19 02:52:37;;;;;;;29.80;11.95;;;;;;;;;;1039978;28;20419;-76
2022/10/19 02:53:07;;;;;;;25.98;11.88;;;;;;;;;;1042080;28;20017;-77
2022/10/19 02:53:38;;;;;;;36.75;15.77;;;;;;;;;;1041976;28;20576;-77
2022/10/19 02:54:10;;;;;;;35.15;13.38;;;;;;;;;;1042220;28;20021;-76
2022/10/19 02:54:42;;;;;;;33.75;14.07;;;;;;;;;;1040654;28;20032;-76
2022/10/19 02:55:16;;;;;;;29.08;14.60;;;;;;;;;;1041688;28;20508;-76
2022/10/19 02:55:48;;;;;;;38.53;17.23;;;;;;;;;;1039109;28;20174;-76
2022/10/19 02:56:18;;;;;;;32.65;15.80;;;;;;;;;;1039622;28;20371;-76
2022/10/19 02:56:49;;;;;;;37.30;16.45;;;;;;;;;;1039453;28;20076;-77
2022/10/19 02:57:21;;;;;;;33.90;14.70;;;;;;;;;;1039899;28;20069;-77
2022/10/19 02:57:56;;;;;;;32.40;15.50;;;;;;;;;;1042658;28;20063;-77
2022/10/19 02:58:39;;;;;;;35.88;14.15;;;;;;;;;;1045100;28;20199;-76
2022/10/19 02:59:10;;;;;;;33.90;14.10;;;;;;;;;;1039374;28;20036;-76
2022/10/19 02:59:44;;;;;;;31.10;15.48;;;;;;;;;;1033596;28;20439;-76
2022/10/19 03:00:15;;;;;;;39.92;15.80;;;;;;;;;;1031046;28;20516;-76
2022/10/19 03:00:46;;;;;;;41.00;16.98;;;;;;;;;;1033170;28;20285;-76
2022/10/19 03:01:16;;;;;;;33.65;15.63;;;;;;;;;;1034521;28;20036;-76
2022/10/19 03:01:47;;;;;;;32.92;15.65;;;;;;;;;;1039385;28;20029;-76
2022/10/19 03:02:18;;;;;;;31.38;14.18;;;;;;;;;;1035134;28;20058;-76
2022/10/19 03:02:49;;;;;;;29.73;13.55;;;;;;;;;;1038674;28;20079;-76
2022/10/19 03:03:20;;;;;;;34.75;13.77;;;;;;;;;;1038267;28;20103;-76
2022/10/19 03:03:51;;;;;;;34.60;15.20;;;;;;;;;;1034270;28;20030;-76
2022/10/19 03:04:22;;;;;;;37.90;13.13;;;;;;;;;;1033224;28;20540;-76
2022/10/19 03:04:53;;;;;;;27.45;13.27;;;;;;;;;;1031710;28;20051;-76
2022/10/19 03:05:24;;;;;;;32.10;14.43;;;;;;;;;;1035964;28;20029;-76
2022/10/19 03:05:54;;;;;;;27.95;13.32;;;;;;;;;;1039160;28;20068;-76
2022/10/19 03:06:25;;;;;;;31.75;13.93;;;;;;;;;;1036147;28;20096;-76
2022/10/19 03:06:56;;;;;;;26.55;13.05;;;;;;;;;;1038931;28;20036;-76
2022/10/19 03:07:27;;;;;;;28.00;12.98;;;;;;;;;;1038627;28;20079;-76
2022/10/19 03:07:58;;;;;;;30.25;13.90;;;;;;;;;;1041971;28;20489;-76
2022/10/19 03:08:29;;;;;;;32.33;14.52;;;;;;;;;;1041484;28;20087;-77
2022/10/19 03:08:59;;;;;;;35.20;15.45;;;;;;;;;;1037322;28;20060;-76
2022/10/19 03:09:30;;;;;;;26.42;12.40;;;;;;;;;;1036851;28;20063;-76
2022/10/19 03:10:01;;;;;;;25.92;11.27;;;;;;;;;;1036472;28;20143;-76
2022/10/19 03:10:32;;;;;;;29.67;10.93;;;;;;;;;;1033521;28;20041;-77
2022/10/19 03:11:02;;;;;;;29.85;13.65;;;;;;;;;;1038715;28;20435;-76
2022/10/19 03:11:33;;;;;;;26.45;13.95;;;;;;;;;;1042005;28;20127;-76
2022/10/19 03:12:04;;;;;;;21.05;10.95;;;;;;;;;;1041784;28;20115;-76
2022/10/19 03:12:34;;;;;;;27.52;12.05;;;;;;;;;;1037481;28;20032;-76
2022/10/19 03:13:08;;;;;;;25.48;11.75;;;;;;;;;;1037036;28;20032;-76
2022/10/19 03:13:40;;;;;;;26.95;12.32;;;;;;;;;;1034186;28;20029;-76
2022/10/19 03:14:11;;;;;;;22.88;11.65;;;;;;;;;;1029436;28;20407;-76
2022/10/19 03:14:42;;;;;;;23.80;10.57;;;;;;;;;;1032827;28;20025;-76
2022/10/19 03:15:14;;;;;;;25.88;10.80;;;;;;;;;;1026274;28;20018;-76